createdAt,value
2023-12-10T00:00:23.364Z,73.32
2023-12-10T00:02:56.566Z,72.98
2023-12-10T00:05:32.301Z,73.27
2023-12-10T00:08:06.008Z,73.02
2023-12-10T00:10:39.255Z,72.79
2023-12-10T00:13:11.476Z,72.64
2023-12-10T00:15:46.250Z,72.96
2023-12-10T00:18:19.611Z,72.70
2023-12-10T00:20:52.822Z,72.75
2023-12-10T00:23:26.114Z,73.06
2023-12-10T00:25:59.334Z,73.29
2023-12-10T00:28:32.562Z,73.09
2023-12-10T00:31:10.143Z,73.30
2023-12-10T00:33:43.569Z,72.63
2023-12-10T00:36:17.346Z,73.14
2023-12-10T00:38:50.644Z,73.17
2023-12-10T00:41:23.879Z,73.28
2023-12-10T00:43:57.087Z,72.93
2023-12-10T00:46:31.767Z,72.63
2023-12-10T00:49:05.116Z,72.95
2023-12-10T00:51:38.780Z,72.66
2023-12-10T00:54:12.744Z,72.09
2023-12-10T00:56:46.861Z,72.31
2023-12-10T00:59:20.073Z,71.70
2023-12-10T01:01:54.720Z,71.30
2023-12-10T01:04:28.513Z,71.25
2023-12-10T01:07:01.836Z,70.84
2023-12-10T01:09:37.353Z,71.34
2023-12-10T01:12:10.884Z,71.05
2023-12-10T01:14:45.584Z,71.08
2023-12-10T01:17:20.173Z,71.22
2023-12-10T01:19:53.467Z,71.28
2023-12-10T01:22:26.919Z,70.99
2023-12-10T01:25:01.419Z,71.82
2023-12-10T01:27:34.691Z,71.54
2023-12-10T01:30:08.991Z,71.45
2023-12-10T01:32:43.911Z,71.58
2023-12-10T01:35:17.447Z,71.60
2023-12-10T01:37:50.913Z,71.21
2023-12-10T01:40:24.322Z,71.07
2023-12-10T01:42:57.643Z,70.58
2023-12-10T01:45:32.010Z,70.67
2023-12-10T01:48:09.852Z,70.41
2023-12-10T01:50:45.364Z,70.14
2023-12-10T01:53:19.537Z,69.72
2023-12-10T01:55:53.282Z,70.01
2023-12-10T01:58:26.487Z,70.00
2023-12-10T02:01:00.146Z,69.49
2023-12-10T02:03:36.233Z,69.39
2023-12-10T02:06:09.476Z,69.26
2023-12-10T02:08:42.699Z,68.83
2023-12-10T02:11:15.968Z,68.78
2023-12-10T02:13:50.701Z,68.56
2023-12-10T02:16:23.934Z,68.84
2023-12-10T02:18:58.652Z,68.38
2023-12-10T02:21:34.668Z,68.00
2023-12-10T02:24:16.793Z,68.11
2023-12-10T02:26:51.702Z,68.58
2023-12-10T02:29:25.191Z,69.02
2023-12-10T02:31:58.437Z,69.16
2023-12-10T02:34:31.735Z,69.21
2023-12-10T02:37:07.188Z,71.00
2023-12-10T02:39:40.527Z,71.60
2023-12-10T02:42:15.268Z,72.90
2023-12-10T02:44:48.570Z,72.32
2023-12-10T02:47:21.789Z,72.31
2023-12-10T02:49:55.005Z,72.67
2023-12-10T02:52:28.491Z,72.18
2023-12-10T02:55:01.829Z,72.54
2023-12-10T02:57:36.518Z,72.70
2023-12-10T03:00:11.864Z,72.37
2023-12-10T03:02:45.262Z,72.51
2023-12-10T03:05:18.603Z,73.60
2023-12-10T03:07:51.887Z,73.52
2023-12-10T03:10:25.118Z,73.77
2023-12-10T03:12:59.858Z,74.76
2023-12-10T03:15:33.195Z,75.34
2023-12-10T03:18:08.500Z,75.00
2023-12-10T03:20:41.817Z,75.31
2023-12-10T03:23:15.165Z,75.73
2023-12-10T03:25:50.680Z,76.35
2023-12-10T03:28:25.332Z,76.67
2023-12-10T03:30:58.573Z,77.54
2023-12-10T03:33:33.255Z,78.55
2023-12-10T03:36:07.152Z,78.11
2023-12-10T03:38:42.460Z,78.59
2023-12-10T03:41:15.836Z,78.78
2023-12-10T03:43:50.553Z,78.82
2023-12-10T03:46:23.796Z,78.55
2023-12-10T03:48:57.193Z,78.87
2023-12-10T03:51:32.511Z,78.99
2023-12-10T03:54:06.283Z,77.96
2023-12-10T03:56:39.521Z,77.79
2023-12-10T03:59:14.151Z,78.17
2023-12-10T04:01:47.442Z,78.19
2023-12-10T04:04:20.754Z,78.01
2023-12-10T04:06:54.003Z,77.02
2023-12-10T04:09:27.283Z,77.47
2023-12-10T04:12:01.491Z,76.71
2023-12-10T04:14:36.483Z,74.84
2023-12-10T04:17:09.639Z,75.02
2023-12-10T04:19:44.120Z,73.91
2023-12-10T04:22:19.607Z,73.91
2023-12-10T04:24:52.866Z,73.38
2023-12-10T04:27:26.846Z,72.99
2023-12-10T04:30:01.524Z,72.80
2023-12-10T04:32:34.948Z,72.37
2023-12-10T04:35:08.953Z,72.45
2023-12-10T04:37:42.576Z,72.58
2023-12-10T04:40:15.831Z,72.72
2023-12-10T04:42:49.932Z,72.18
2023-12-10T04:45:24.596Z,72.51
2023-12-10T04:47:58.057Z,71.86
2023-12-10T04:50:31.661Z,72.00
2023-12-10T04:53:04.954Z,71.52
2023-12-10T04:55:38.286Z,71.83
2023-12-10T04:58:11.835Z,71.41
2023-12-10T05:00:46.924Z,71.43
2023-12-10T05:03:20.310Z,71.54
2023-12-10T05:05:53.610Z,71.38
2023-12-10T05:08:27.141Z,71.11
2023-12-10T05:11:00.457Z,71.42
2023-12-10T05:13:33.718Z,71.14
2023-12-10T05:16:08.969Z,72.06
2023-12-10T05:18:42.265Z,72.20
2023-12-10T05:21:15.810Z,71.97
2023-12-10T05:23:49.050Z,71.59
2023-12-10T05:26:22.270Z,71.29
2023-12-10T05:28:55.502Z,71.41
2023-12-10T05:31:30.475Z,71.57
2023-12-10T05:34:03.742Z,71.78
2023-12-10T05:36:37.148Z,71.66
2023-12-10T05:39:12.091Z,71.48
2023-12-10T05:41:45.328Z,71.42
2023-12-10T05:44:18.521Z,71.61
2023-12-10T05:46:53.210Z,71.57
2023-12-10T05:49:26.650Z,71.78
2023-12-10T05:52:00.090Z,71.74
2023-12-10T05:54:33.445Z,71.95
2023-12-10T05:57:07.252Z,72.17
2023-12-10T05:59:40.443Z,72.18
2023-12-10T06:02:15.170Z,72.03
2023-12-10T06:04:48.432Z,72.02
2023-12-10T06:07:21.761Z,72.06
2023-12-10T06:09:55.008Z,72.05
2023-12-10T06:12:28.716Z,71.98
2023-12-10T06:15:02.158Z,71.33
2023-12-10T06:17:36.827Z,71.32
2023-12-10T06:20:11.283Z,71.17
2023-12-10T06:22:44.492Z,71.47
2023-12-10T06:25:17.741Z,71.82
2023-12-10T06:27:51.032Z,71.63
2023-12-10T06:30:24.395Z,71.93
2023-12-10T06:32:59.181Z,72.10
2023-12-10T06:35:34.689Z,72.32
2023-12-10T06:38:08.835Z,72.32
2023-12-10T06:40:42.056Z,72.29
2023-12-10T06:43:15.317Z,72.33
2023-12-10T06:45:49.153Z,72.22
2023-12-10T06:48:24.141Z,72.39
2023-12-10T06:50:57.525Z,72.39
2023-12-10T06:53:32.980Z,72.54
2023-12-10T06:56:06.875Z,72.75
2023-12-10T06:58:40.353Z,72.63
2023-12-10T07:01:16.105Z,72.54
2023-12-10T07:03:53.266Z,72.64
2023-12-10T07:06:26.544Z,72.71
2023-12-10T07:08:59.821Z,72.23
2023-12-10T07:11:33.103Z,71.88
2023-12-10T07:14:06.450Z,71.68
2023-12-10T07:16:39.678Z,71.62
2023-12-10T07:19:14.456Z,71.77
2023-12-10T07:21:50.055Z,72.03
2023-12-10T07:24:24.064Z,71.84
2023-12-10T07:26:57.249Z,71.68
2023-12-10T07:29:30.514Z,71.83
2023-12-10T07:32:03.753Z,71.63
2023-12-10T07:34:38.496Z,71.46
2023-12-10T07:37:11.906Z,71.41
2023-12-10T07:39:45.262Z,71.86
2023-12-10T07:42:18.570Z,71.56
2023-12-10T07:44:51.947Z,71.89
2023-12-10T07:47:25.232Z,72.07
2023-12-10T07:49:59.998Z,72.34
2023-12-10T07:52:33.345Z,72.57
2023-12-10T07:55:07.632Z,72.81
2023-12-10T07:57:41.109Z,72.77
2023-12-10T08:00:15.513Z,73.23
2023-12-10T08:02:48.880Z,73.51
2023-12-10T08:05:23.816Z,73.70
2023-12-10T08:07:58.136Z,74.02
2023-12-10T08:10:31.709Z,73.90
2023-12-10T08:13:05.012Z,74.36
2023-12-10T08:15:38.285Z,74.57
2023-12-10T08:18:11.702Z,74.79
2023-12-10T08:20:46.424Z,74.81
2023-12-10T08:23:19.667Z,75.01
2023-12-10T08:25:52.869Z,75.18
2023-12-10T08:28:26.128Z,75.12
2023-12-10T08:30:59.489Z,75.23
2023-12-10T08:33:32.965Z,74.92
2023-12-10T08:36:08.582Z,75.17
2023-12-10T08:38:44.868Z,75.08
2023-12-10T08:41:18.525Z,75.08
2023-12-10T08:43:51.782Z,75.01
2023-12-10T08:46:25.019Z,74.70
2023-12-10T08:48:58.826Z,74.76
2023-12-10T08:51:33.524Z,74.52
2023-12-10T08:54:06.807Z,74.16
2023-12-10T08:56:40.244Z,73.98
2023-12-10T08:59:13.501Z,74.26
2023-12-10T09:01:46.787Z,74.58
2023-12-10T09:04:20.091Z,74.28
2023-12-10T09:06:54.762Z,74.09
2023-12-10T09:09:29.533Z,74.52
2023-12-10T09:12:03.033Z,74.50
2023-12-10T09:14:37.421Z,74.66
2023-12-10T09:17:10.698Z,75.01
2023-12-10T09:19:43.974Z,74.88
2023-12-10T09:22:18.804Z,75.28
2023-12-10T09:24:52.097Z,75.15
2023-12-10T09:27:25.438Z,75.43
2023-12-10T09:29:58.919Z,75.59
2023-12-10T09:32:32.484Z,75.32
2023-12-10T09:35:06.945Z,75.28
2023-12-10T09:37:41.594Z,75.80
2023-12-10T09:40:15.552Z,75.78
2023-12-10T09:42:49.766Z,75.72
2023-12-10T09:45:23.525Z,75.70
2023-12-10T09:47:57.652Z,76.03
2023-12-10T09:50:34.029Z,75.67
2023-12-10T09:53:08.874Z,75.39
2023-12-10T09:55:42.615Z,75.19
2023-12-10T09:58:16.044Z,75.19
2023-12-10T10:00:49.511Z,75.16
2023-12-10T10:03:23.159Z,74.73
2023-12-10T10:05:56.592Z,74.71
2023-12-10T10:08:31.386Z,74.65
2023-12-10T10:11:05.004Z,74.13
2023-12-10T10:13:53.114Z,74.05
2023-12-10T10:16:26.332Z,74.16
2023-12-10T10:19:01.139Z,73.73
2023-12-10T10:21:34.886Z,73.17
2023-12-10T10:24:10.227Z,72.53
2023-12-10T10:26:45.714Z,71.38
2023-12-10T10:29:20.600Z,70.69
2023-12-10T10:31:59.360Z,70.30
2023-12-10T10:34:36.712Z,69.96
2023-12-10T10:37:10.593Z,69.35
2023-12-10T10:39:45.960Z,69.37
2023-12-10T10:42:21.668Z,68.71
2023-12-10T10:44:54.919Z,69.35
2023-12-10T10:47:30.485Z,70.26
2023-12-10T10:50:21.073Z,71.80
2023-12-10T10:52:58.499Z,71.65
2023-12-10T10:55:35.151Z,72.20
2023-12-10T10:58:31.709Z,72.81
2023-12-10T11:01:06.879Z,73.13
2023-12-10T11:03:40.321Z,73.30
2023-12-10T11:06:13.770Z,73.52
2023-12-10T11:08:57.813Z,73.48
2023-12-10T11:11:39.455Z,73.25
2023-12-10T11:14:23.057Z,72.61
2023-12-10T11:17:02.317Z,72.66
2023-12-10T11:19:35.828Z,72.80
2023-12-10T11:22:15.180Z,72.82
2023-12-10T11:24:51.927Z,72.76
2023-12-10T11:27:28.091Z,72.58
2023-12-10T11:30:01.530Z,72.82
2023-12-10T11:32:34.758Z,72.76
2023-12-10T11:35:08.613Z,73.13
2023-12-10T11:37:41.929Z,72.54
2023-12-10T11:40:15.696Z,72.51
2023-12-10T11:42:50.362Z,72.47
2023-12-10T11:45:23.596Z,72.21
2023-12-10T11:47:57.524Z,72.15
2023-12-10T11:50:33.072Z,72.30
2023-12-10T11:53:08.351Z,72.04
2023-12-10T11:55:41.800Z,71.99
2023-12-10T11:58:26.165Z,71.98
2023-12-10T12:01:01.068Z,71.87
2023-12-10T12:03:35.554Z,71.26
2023-12-10T12:06:09.454Z,71.39
2023-12-10T12:08:42.896Z,72.18
2023-12-10T12:11:18.015Z,72.01
2023-12-10T12:13:53.508Z,72.63
2023-12-10T12:16:26.801Z,72.49
2023-12-10T12:19:00.204Z,72.75
2023-12-10T12:21:33.438Z,71.93
2023-12-10T12:24:07.160Z,71.89
2023-12-10T12:26:40.529Z,72.45
2023-12-10T12:29:15.090Z,71.49
2023-12-10T12:32:04.545Z,71.28
2023-12-10T12:34:41.652Z,70.84
2023-12-10T12:37:14.988Z,70.54
2023-12-10T12:39:48.514Z,70.58
2023-12-10T12:42:23.656Z,70.31
2023-12-10T12:44:58.484Z,70.02
2023-12-10T12:47:32.162Z,70.21
2023-12-10T12:50:07.766Z,70.41
2023-12-10T12:52:41.143Z,70.73
2023-12-10T12:55:14.700Z,70.64
2023-12-10T12:57:47.945Z,70.92
2023-12-10T13:00:23.207Z,70.89
2023-12-10T13:02:58.152Z,71.36
2023-12-10T13:05:31.513Z,71.05
2023-12-10T13:08:04.803Z,71.06
2023-12-10T13:10:39.144Z,71.20
2023-12-10T13:13:13.118Z,71.09
2023-12-10T13:15:48.329Z,71.26
2023-12-10T13:18:21.699Z,71.14
2023-12-10T13:20:55.212Z,71.18
2023-12-10T13:23:28.599Z,71.03
2023-12-10T13:26:01.852Z,70.78
2023-12-10T13:28:35.142Z,70.99
2023-12-10T13:31:09.864Z,71.17
2023-12-10T13:33:43.837Z,71.31
2023-12-10T13:36:17.184Z,71.37
2023-12-10T13:38:50.839Z,71.29
2023-12-10T13:41:25.662Z,71.65
2023-12-10T13:43:58.896Z,71.83
2023-12-10T13:46:34.387Z,71.90
2023-12-10T13:49:08.429Z,71.90
2023-12-10T13:51:41.735Z,72.13
2023-12-10T13:54:15.112Z,72.59
2023-12-10T13:56:50.925Z,72.76
2023-12-10T13:59:24.442Z,72.87
2023-12-10T14:01:59.056Z,72.79
2023-12-10T14:04:32.439Z,72.95
2023-12-10T14:07:07.536Z,72.92
2023-12-10T14:09:40.886Z,72.61
2023-12-10T14:12:14.493Z,72.50
2023-12-10T14:14:47.686Z,72.49
2023-12-10T14:17:22.445Z,72.77
2023-12-10T14:19:55.811Z,72.77
2023-12-10T14:22:29.174Z,72.54
2023-12-10T14:25:03.749Z,72.72
2023-12-10T14:27:37.067Z,72.78
2023-12-10T14:30:13.369Z,72.70
2023-12-10T14:32:48.110Z,72.38
2023-12-10T14:35:21.521Z,72.30
2023-12-10T14:37:54.777Z,72.42
2023-12-10T14:40:28.031Z,72.33
2023-12-10T14:43:01.391Z,72.56
2023-12-10T14:45:34.734Z,72.27
2023-12-10T14:48:12.064Z,72.26
2023-12-10T14:50:45.368Z,72.76
2023-12-10T14:53:19.085Z,72.75
2023-12-10T14:55:52.341Z,73.14
2023-12-10T14:58:28.121Z,73.08
2023-12-10T15:01:01.425Z,73.14
2023-12-10T15:03:36.157Z,73.49
2023-12-10T15:06:09.870Z,73.36
2023-12-10T15:08:43.151Z,73.09
2023-12-10T15:11:16.394Z,72.95
2023-12-10T15:13:49.690Z,72.97
2023-12-10T15:16:24.586Z,72.85
2023-12-10T15:18:59.386Z,72.81
2023-12-10T15:21:32.719Z,72.73
2023-12-10T15:24:06.550Z,72.76
2023-12-10T15:26:39.803Z,72.44
2023-12-10T15:29:13.074Z,71.42
2023-12-10T15:31:46.959Z,71.25
2023-12-10T15:34:21.761Z,70.65
2023-12-10T15:36:55.219Z,70.08
2023-12-10T15:39:28.587Z,69.81
2023-12-10T15:42:01.911Z,69.70
2023-12-10T15:44:35.306Z,69.34
2023-12-10T15:47:08.922Z,69.24
2023-12-10T15:49:43.630Z,68.75
2023-12-10T15:52:26.126Z,68.74
2023-12-10T15:55:03.939Z,68.85
2023-12-10T15:57:38.626Z,68.92
2023-12-10T16:00:12.624Z,68.76
2023-12-10T16:02:45.904Z,68.89
2023-12-10T16:05:20.661Z,69.05
2023-12-10T16:07:54.426Z,69.04
2023-12-10T16:10:27.962Z,68.77
2023-12-10T16:13:01.212Z,68.55
2023-12-10T16:15:34.609Z,68.55
2023-12-10T16:18:07.991Z,68.59
2023-12-10T16:20:42.662Z,68.60
2023-12-10T16:23:16.154Z,67.94
2023-12-10T16:25:49.369Z,68.39
2023-12-10T16:28:22.566Z,68.64
2023-12-10T16:30:55.899Z,68.64
2023-12-10T16:33:29.275Z,68.39
2023-12-10T16:36:04.040Z,68.51
2023-12-10T16:38:37.222Z,70.20
2023-12-10T16:41:11.120Z,71.23
2023-12-10T16:43:45.550Z,72.53
2023-12-10T16:46:19.564Z,73.92
2023-12-10T16:48:52.895Z,74.96
2023-12-10T16:51:27.600Z,75.84
2023-12-10T16:54:01.961Z,77.30
2023-12-10T16:56:35.208Z,78.88
2023-12-10T16:59:08.437Z,78.76
2023-12-10T17:01:41.823Z,79.90
2023-12-10T17:04:15.208Z,79.36
2023-12-10T17:06:50.096Z,79.87
2023-12-10T17:09:23.319Z,79.97
2023-12-10T17:11:57.380Z,79.81
2023-12-10T17:14:30.588Z,79.98
2023-12-10T17:17:03.971Z,79.89
2023-12-10T17:19:37.540Z,81.43
2023-12-10T17:22:12.403Z,81.37
2023-12-10T17:24:45.715Z,81.85
2023-12-10T17:27:19.959Z,82.25
2023-12-10T17:29:53.318Z,82.78
2023-12-10T17:32:26.716Z,83.15
2023-12-10T17:35:03.717Z,83.70
2023-12-10T17:37:38.873Z,84.21
2023-12-10T17:40:13.430Z,84.55
2023-12-10T17:42:46.848Z,85.01
2023-12-10T17:45:20.868Z,84.47
2023-12-10T17:47:54.284Z,84.52
2023-12-10T17:50:27.858Z,84.74
2023-12-10T17:53:02.639Z,84.63
2023-12-10T17:55:35.844Z,84.77
2023-12-10T17:58:11.502Z,84.93
2023-12-10T18:00:46.453Z,85.03
2023-12-10T18:03:19.880Z,85.29
2023-12-10T18:05:53.169Z,85.09
2023-12-10T18:08:27.784Z,85.12
2023-12-10T18:11:01.818Z,85.47
2023-12-10T18:13:35.119Z,85.27
2023-12-10T18:16:09.136Z,84.81
2023-12-10T18:18:42.581Z,84.73
2023-12-10T18:21:16.277Z,84.39
2023-12-10T18:23:50.949Z,84.32
2023-12-10T18:26:24.164Z,83.94
2023-12-10T18:28:57.554Z,83.93
2023-12-10T18:31:31.148Z,83.51
2023-12-10T18:34:04.969Z,83.45
2023-12-10T18:36:38.326Z,83.41
2023-12-10T18:39:13.097Z,83.41
2023-12-10T18:41:46.265Z,83.86
2023-12-10T18:44:19.469Z,83.98
2023-12-10T18:46:52.891Z,83.74
2023-12-10T18:49:26.267Z,83.70
2023-12-10T18:51:59.571Z,83.70
2023-12-10T18:54:34.292Z,83.92
2023-12-10T18:57:07.514Z,83.80
2023-12-10T18:59:41.185Z,83.75
2023-12-10T19:02:14.357Z,83.22
2023-12-10T19:04:47.712Z,82.62
2023-12-10T19:07:20.996Z,82.18
2023-12-10T19:09:55.805Z,82.32
2023-12-10T19:12:29.174Z,81.90
2023-12-10T19:15:02.432Z,81.42
2023-12-10T19:17:35.994Z,81.43
2023-12-10T19:20:21.767Z,81.29
2023-12-10T19:22:55.500Z,81.30
2023-12-10T19:25:30.200Z,81.39
2023-12-10T19:28:03.488Z,80.77
2023-12-10T19:30:36.754Z,81.01
2023-12-10T19:33:10.204Z,81.28
2023-12-10T19:35:43.589Z,80.64
2023-12-10T19:38:19.829Z,80.75
2023-12-10T19:40:54.864Z,80.55
2023-12-10T19:43:28.146Z,80.64
2023-12-10T19:46:02.409Z,80.48
2023-12-10T19:48:35.752Z,80.63
2023-12-10T19:51:09.436Z,80.16
2023-12-10T19:53:44.311Z,80.06
2023-12-10T19:56:18.934Z,80.42
2023-12-10T19:58:52.112Z,80.07
2023-12-10T20:01:25.495Z,80.25
2023-12-10T20:04:00.630Z,80.31
2023-12-10T20:06:34.287Z,80.58
2023-12-10T20:09:08.684Z,80.27
2023-12-10T20:11:43.366Z,80.27
2023-12-10T20:14:16.603Z,80.15
2023-12-10T20:16:51.883Z,80.09
2023-12-10T20:19:28.608Z,80.00
2023-12-10T20:22:01.830Z,79.67
2023-12-10T20:24:38.812Z,79.78
2023-12-10T20:27:15.789Z,79.61
2023-12-10T20:29:48.969Z,79.93
2023-12-10T20:32:23.080Z,79.96
2023-12-10T20:34:56.375Z,80.07
2023-12-10T20:37:29.878Z,80.15
2023-12-10T20:40:03.537Z,80.39
2023-12-10T20:42:38.222Z,80.73
2023-12-10T20:45:11.722Z,80.78
2023-12-10T20:47:44.987Z,80.61
2023-12-10T20:50:19.054Z,80.76
2023-12-10T20:52:52.286Z,80.76
2023-12-10T20:55:25.963Z,80.59
2023-12-10T20:58:00.574Z,80.77
2023-12-10T21:00:34.863Z,80.67
2023-12-10T21:03:09.288Z,80.52
2023-12-10T21:05:43.926Z,80.42
2023-12-10T21:08:17.780Z,80.49
2023-12-10T21:10:53.577Z,80.58
2023-12-10T21:13:30.203Z,80.78
2023-12-10T21:16:03.634Z,80.75
2023-12-10T21:18:38.410Z,80.82
2023-12-10T21:21:11.680Z,80.96
2023-12-10T21:23:44.891Z,80.88
2023-12-10T21:26:18.098Z,80.73
2023-12-10T21:28:52.699Z,80.67
2023-12-10T21:31:26.085Z,80.63
2023-12-10T21:33:59.657Z,80.87
2023-12-10T21:36:33.767Z,80.76
2023-12-10T21:39:07.076Z,80.70
2023-12-10T21:41:40.302Z,80.63
2023-12-10T21:44:14.922Z,80.61
2023-12-10T21:46:48.138Z,80.76
2023-12-10T21:49:21.530Z,80.67
2023-12-10T21:51:54.873Z,80.60
2023-12-10T21:54:28.186Z,80.34
2023-12-10T21:57:01.561Z,79.94
2023-12-10T21:59:36.337Z,79.63
2023-12-10T22:02:09.614Z,79.53
2023-12-10T22:04:42.995Z,79.42
2023-12-10T22:07:17.555Z,79.36
2023-12-10T22:09:51.336Z,79.04
2023-12-10T22:12:24.585Z,78.86
2023-12-10T22:15:01.709Z,78.33
2023-12-10T22:17:35.134Z,78.11
2023-12-10T22:20:09.978Z,77.82
2023-12-10T22:22:45.049Z,77.67
2023-12-10T22:25:18.608Z,77.12
2023-12-10T22:27:52.029Z,76.98
2023-12-10T22:30:28.318Z,76.80
2023-12-10T22:33:02.404Z,76.84
2023-12-10T22:35:35.748Z,76.75
2023-12-10T22:38:08.969Z,76.59
2023-12-10T22:40:42.170Z,76.52
2023-12-10T22:43:16.057Z,76.66
2023-12-10T22:45:50.709Z,76.36
2023-12-10T22:48:24.044Z,76.32
2023-12-10T22:50:58.024Z,76.55
2023-12-10T22:53:31.218Z,76.50
2023-12-10T22:56:04.775Z,76.49
2023-12-10T22:58:37.987Z,76.82
2023-12-10T23:01:12.764Z,77.08
2023-12-10T23:03:46.162Z,77.17
2023-12-10T23:06:19.806Z,77.15
2023-12-10T23:08:53.121Z,77.02
2023-12-10T23:11:26.401Z,77.07
2023-12-10T23:13:59.647Z,76.89
2023-12-10T23:16:34.252Z,76.77
2023-12-10T23:19:07.569Z,76.76
2023-12-10T23:21:40.850Z,76.56
2023-12-10T23:24:14.240Z,76.40
2023-12-10T23:26:47.538Z,76.53
2023-12-10T23:29:20.793Z,76.33
2023-12-10T23:31:55.370Z,76.27
2023-12-10T23:34:28.657Z,76.37
2023-12-10T23:37:02.020Z,75.99
2023-12-10T23:39:35.293Z,76.16
2023-12-10T23:42:08.798Z,76.02
2023-12-10T23:44:42.062Z,75.71
2023-12-10T23:47:16.788Z,75.75
2023-12-10T23:49:50.097Z,75.61
2023-12-10T23:52:23.392Z,75.46
2023-12-10T23:54:56.690Z,75.14
2023-12-10T23:57:30.243Z,75.06
